Аэропорт: Основа. Харьков

ICAO: UKHH

METAR:
2021-04-21 20:30:00
UKHH 212030Z VRB01MPS CAVOK 06/04 Q1016 R25/190079 NOSIG
METAR:
2021-04-21 17:02:00
TAF UKHH 211702Z 2118/2218 20003MPS 2100 BR SCT007 TX17/2212Z TN04/2203Z PROB40 TEMPO 2118/2121 -TSRA BKN020CB TEMPO 2121/2206 0400 FG VV002 BECMG 2206/2208 22006G12MPS 9999 NSW SCT030 TEMPO 2209/2215 24009G16MPS 2100 -TSRA BKN007 BKN020CB